Time;durP1;ratioP1;P1;durP2;ratioP2;P2;SDS_P1;SDS_P2;PMS_P1;PMS_P2;Temp;Humidity;BMP_temperature;BMP_pressure;BME280_temperature;BME280_humidity;BME280_pressure;Samples;Min_cycle;Max_cycle;Signal;HPM_P1;HPM_P2
2021/01/19 00:01:49;;;;;;;7.00;3.20;;;2.40;92.40;;;;;;4919098;29;20059;-81
2021/01/19 00:04:16;;;;;;;6.20;2.35;;;2.40;92.40;;;;;;4903069;29;20047;-81
2021/01/19 00:06:42;;;;;;;6.05;2.53;;;2.30;92.50;;;;;;4934042;29;20159;-81
2021/01/19 00:09:12;;;;;;;7.05;2.17;;;2.30;92.50;;;;;;4925645;29;20564;-81
2021/01/19 00:11:38;;;;;;;5.05;2.05;;;2.30;92.60;;;;;;4923837;29;20131;-80
2021/01/19 00:14:05;;;;;;;4.00;1.98;;;2.20;92.60;;;;;;4935975;29;20052;-81
2021/01/19 00:16:31;;;;;;;5.75;3.05;;;2.20;92.80;;;;;;4938862;29;20060;-80
2021/01/19 00:18:58;;;;;;;6.03;2.45;;;2.20;92.90;;;;;;4941737;29;20059;-82
2021/01/19 00:21:24;;;;;;;6.57;2.20;;;2.20;92.70;;;;;;4933664;29;20039;-80
2021/01/19 00:23:51;;;;;;;5.55;2.10;;;2.20;92.80;;;;;;4931373;29;20052;-80
2021/01/19 00:26:18;;;;;;;7.18;2.17;;;2.20;93.00;;;;;;4929772;29;20526;-80
2021/01/19 00:28:45;;;;;;;7.53;2.20;;;2.10;92.90;;;;;;4931498;29;20139;-81
2021/01/19 00:31:11;;;;;;;6.90;2.40;;;2.20;93.00;;;;;;4928907;29;20129;-80
2021/01/19 00:33:39;;;;;;;10.52;2.50;;;2.10;93.00;;;;;;4937482;28;20056;-81
2021/01/19 00:36:06;;;;;;;6.25;2.50;;;2.20;92.90;;;;;;4943037;28;20040;-81
2021/01/19 00:38:33;;;;;;;5.68;2.17;;;2.20;92.80;;;;;;4925789;29;20080;-81
2021/01/19 00:41:00;;;;;;;5.78;2.45;;;2.20;92.80;;;;;;4939940;29;20099;-80
2021/01/19 00:43:27;;;;;;;5.80;2.33;;;2.30;92.60;;;;;;4938419;29;20044;-80
2021/01/19 00:45:54;;;;;;;6.55;1.95;;;2.20;92.90;;;;;;4940278;29;20059;-81
2021/01/19 00:48:20;;;;;;;4.90;2.30;;;2.20;92.80;;;;;;4940966;29;20076;-81
2021/01/19 00:50:47;;;;;;;6.28;2.47;;;2.30;92.60;;;;;;4938683;29;20075;-80
2021/01/19 00:53:13;;;;;;;6.95;2.67;;;2.40;92.50;;;;;;4939211;29;20124;-80
2021/01/19 00:55:40;;;;;;;4.93;2.40;;;2.50;92.40;;;;;;4940357;29;20043;-81
2021/01/19 00:58:07;;;;;;;5.90;2.20;;;2.50;92.30;;;;;;4940118;29;20071;-80
2021/01/19 01:00:34;;;;;;;6.50;2.40;;;2.50;92.20;;;;;;4940673;29;20062;-81
2021/01/19 01:03:01;;;;;;;5.03;2.17;;;2.50;92.20;;;;;;4923798;29;20103;-81
2021/01/19 01:05:28;;;;;;;4.93;2.25;;;2.50;92.20;;;;;;4939586;29;20080;-81
2021/01/19 01:07:55;;;;;;;6.55;2.53;;;2.50;92.10;;;;;;4932201;29;20496;-80
2021/01/19 01:10:22;;;;;;;4.85;2.20;;;2.50;92.10;;;;;;4908897;29;20091;-80
2021/01/19 01:12:48;;;;;;;7.15;2.50;;;2.40;92.10;;;;;;4929215;29;20116;-81
2021/01/19 01:15:26;;;;;;;5.22;2.25;;;2.40;92.20;;;;;;4927613;29;20475;-80
2021/01/19 01:17:54;;;;;;;7.07;2.30;;;2.40;92.20;;;;;;4907837;29;20126;-81
2021/01/19 01:20:20;;;;;;;8.07;2.63;;;2.40;92.10;;;;;;4907225;29;20146;-80
2021/01/19 01:22:47;;;;;;;6.97;2.10;;;2.40;92.20;;;;;;4924168;29;20055;-80
2021/01/19 01:25:15;;;;;;;6.28;2.40;;;2.40;92.20;;;;;;4922837;29;20139;-79
2021/01/19 01:27:44;;;;;;;5.03;2.08;;;2.40;92.10;;;;;;4906125;29;20433;-81
2021/01/19 01:30:13;;;;;;;6.63;2.42;;;2.40;92.10;;;;;;4920946;29;20494;-80
2021/01/19 01:32:40;;;;;;;4.88;2.20;;;2.40;92.10;;;;;;4920773;29;20060;-80
2021/01/19 01:35:10;;;;;;;5.03;2.33;;;2.30;92.20;;;;;;4923616;29;20133;-80
2021/01/19 01:37:44;;;;;;;5.00;2.40;;;2.30;92.30;;;;;;4935001;29;20083;-80
2021/01/19 01:40:13;;;;;;;5.35;2.53;;;2.20;92.50;;;;;;4935539;29;20052;-81
2021/01/19 01:42:39;;;;;;;5.63;2.38;;;2.30;92.40;;;;;;4926210;29;20059;-81
2021/01/19 01:45:07;;;;;;;6.25;2.40;;;2.30;92.20;;;;;;4922482;29;20056;-81
2021/01/19 01:47:34;;;;;;;5.72;2.20;;;2.30;92.20;;;;;;4921413;29;20131;-81
2021/01/19 01:50:02;;;;;;;5.82;2.20;;;2.30;92.20;;;;;;4909347;29;20288;-81
2021/01/19 01:52:30;;;;;;;5.72;2.20;;;2.30;92.10;;;;;;4917853;29;20048;-81
2021/01/19 01:54:57;;;;;;;6.63;2.63;;;2.30;92.10;;;;;;4935617;29;20051;-80
2021/01/19 01:57:24;;;;;;;5.10;2.00;;;2.20;92.30;;;;;;4921273;29;20174;-80
2021/01/19 01:59:57;;;;;;;6.47;2.33;;;2.20;92.40;;;;;;4936086;29;20075;-81
2021/01/19 02:02:24;;;;;;;5.88;2.45;;;2.10;92.40;;;;;;4933672;29;20078;-81
2021/01/19 02:04:51;;;;;;;4.75;2.42;;;2.10;92.40;;;;;;4917283;29;20055;-81
2021/01/19 02:07:26;;;;;;;5.22;2.28;;;2.00;92.50;;;;;;4917117;29;20056;-81
2021/01/19 02:10:05;;;;;;;6.57;2.20;;;2.10;92.70;;;;;;4918678;29;20565;-81
2021/01/19 02:12:43;;;;;;;7.05;2.58;;;2.10;92.40;;;;;;4932781;29;20083;-80
2021/01/19 02:15:11;;;;;;;6.55;2.25;;;2.20;92.30;;;;;;4929772;29;20052;-80
2021/01/19 02:17:48;;;;;;;7.10;2.47;;;2.10;92.30;;;;;;4925352;29;20131;-80
2021/01/19 02:20:48;;;;;;;6.65;2.22;;;2.10;92.40;;;;;;4923381;29;20138;-81
2021/01/19 02:23:30;;;;;;;7.10;2.25;;;2.10;92.50;;;;;;4901859;29;20049;-80
2021/01/19 02:26:41;;;;;;;6.13;2.05;;;2.00;92.40;;;;;;4913540;29;20052;-80
2021/01/19 02:29:28;;;;;;;8.23;2.33;;;2.10;92.30;;;;;;4887236;29;20048;-80
2021/01/19 02:32:21;;;;;;;6.60;2.45;;;2.00;92.40;;;;;;4900775;29;20059;-80
2021/01/19 02:34:54;;;;;;;5.68;2.45;;;2.10;92.40;;;;;;4924064;29;20056;-80
2021/01/19 02:37:29;;;;;;;6.55;2.50;;;2.10;92.50;;;;;;4925542;29;20115;-80
2021/01/19 02:40:03;;;;;;;4.03;1.98;;;2.10;92.50;;;;;;4903856;29;20052;-80
2021/01/19 02:42:41;;;;;;;4.53;1.80;;;2.10;92.30;;;;;;4899877;29;20103;-80
2021/01/19 02:45:10;;;;;;;4.57;1.70;;;2.10;92.40;;;;;;4898729;29;20064;-81
2021/01/19 02:47:39;;;;;;;5.25;1.70;;;2.10;92.30;;;;;;4900977;29;20508;-81
2021/01/19 02:50:09;;;;;;;6.72;1.85;;;2.10;92.20;;;;;;4899126;29;20061;-80
2021/01/19 02:52:36;;;;;;;4.57;1.90;;;2.10;92.20;;;;;;4910572;29;20494;-80
2021/01/19 02:55:05;;;;;;;7.57;2.28;;;2.10;92.40;;;;;;4919162;29;20052;-81
2021/01/19 02:57:47;;;;;;;9.05;2.40;;;2.00;92.80;;;;;;4920523;29;20057;-81
2021/01/19 03:00:19;;;;;;;4.63;1.92;;;1.90;93.00;;;;;;4921897;29;20553;-81
2021/01/19 03:02:49;;;;;;;4.13;1.80;;;1.80;93.20;;;;;;4921693;29;20052;-80
2021/01/19 03:05:17;;;;;;;5.43;1.90;;;1.80;93.50;;;;;;4920201;29;20119;-80
2021/01/19 03:07:45;;;;;;;4.82;1.80;;;1.70;93.50;;;;;;4920191;29;20048;-81
2021/01/19 03:10:15;;;;;;;6.25;1.85;;;1.80;93.20;;;;;;4921906;29;20135;-79
2021/01/19 03:12:45;;;;;;;5.70;1.50;;;1.80;93.10;;;;;;4906244;29;20127;-81
2021/01/19 03:15:14;;;;;;;4.82;1.67;;;1.80;92.90;;;;;;4922087;29;20127;-79
2021/01/19 03:17:43;;;;;;;3.80;1.58;;;1.70;92.60;;;;;;4922532;29;20127;-79
2021/01/19 03:20:12;;;;;;;3.97;1.38;;;1.70;92.50;;;;;;4922175;29;20138;-79
2021/01/19 03:22:39;;;;;;;6.28;1.60;;;1.70;92.40;;;;;;4920450;29;20486;-79
2021/01/19 03:25:07;;;;;;;4.68;1.50;;;1.70;92.40;;;;;;4919029;29;20142;-79
2021/01/19 03:27:34;;;;;;;3.55;1.30;;;1.70;92.40;;;;;;4919219;29;20132;-80
2021/01/19 03:30:01;;;;;;;4.32;1.40;;;1.70;92.40;;;;;;4919777;29;20058;-79
2021/01/19 03:32:27;;;;;;;3.63;1.48;;;1.70;92.20;;;;;;4919538;29;20160;-80
2021/01/19 03:34:54;;;;;;;4.78;1.65;;;1.70;92.30;;;;;;4917499;29;20056;-80
2021/01/19 03:37:22;;;;;;;5.30;1.52;;;1.80;92.30;;;;;;4920307;29;20138;-80
2021/01/19 03:39:49;;;;;;;3.22;1.30;;;1.70;92.60;;;;;;4921715;29;20131;-80
2021/01/19 03:42:16;;;;;;;4.28;1.40;;;1.70;92.60;;;;;;4921476;29;20056;-80
2021/01/19 03:44:42;;;;;;;4.10;1.70;;;1.80;92.50;;;;;;4920623;29;20048;-80
2021/01/19 03:47:09;;;;;;;7.43;2.55;;;1.70;92.20;;;;;;4921773;29;20332;-80
2021/01/19 03:49:35;;;;;;;4.88;2.22;;;1.60;92.30;;;;;;4920627;29;20127;-80
2021/01/19 03:52:02;;;;;;;5.43;2.38;;;1.50;92.60;;;;;;4905052;29;20134;-80
2021/01/19 03:54:30;;;;;;;4.80;1.90;;;1.40;92.90;;;;;;4902408;29;20179;-80
2021/01/19 03:56:56;;;;;;;4.40;1.95;;;1.40;93.10;;;;;;4920790;29;20062;-80
2021/01/19 03:59:23;;;;;;;5.95;1.95;;;1.30;93.30;;;;;;4923886;29;20059;-80
2021/01/19 04:01:49;;;;;;;4.55;2.28;;;1.20;93.40;;;;;;4921604;29;20064;-80
2021/01/19 04:04:17;;;;;;;4.93;2.50;;;1.20;93.50;;;;;;4925674;29;20135;-80
2021/01/19 04:06:43;;;;;;;5.68;2.20;;;1.20;93.60;;;;;;4925919;29;20052;-80
2021/01/19 04:09:10;;;;;;;5.65;2.00;;;1.20;93.70;;;;;;4923776;29;20143;-80
2021/01/19 04:11:37;;;;;;;4.97;2.08;;;1.30;93.70;;;;;;4925241;29;20112;-81
2021/01/19 04:14:04;;;;;;;6.78;2.80;;;1.30;93.50;;;;;;4927303;29;20142;-81
2021/01/19 04:16:31;;;;;;;5.43;2.60;;;1.20;93.30;;;;;;4926974;29;20338;-81
2021/01/19 04:18:57;;;;;;;6.43;2.35;;;1.20;93.50;;;;;;4940199;29;20111;-81
2021/01/19 04:21:25;;;;;;;4.32;2.10;;;1.20;93.70;;;;;;4908270;29;20059;-81
2021/01/19 04:23:52;;;;;;;5.70;2.85;;;1.30;93.70;;;;;;4938715;29;20063;-81
2021/01/19 04:26:19;;;;;;;5.00;2.20;;;1.20;93.50;;;;;;4947781;29;20138;-80
2021/01/19 04:28:46;;;;;;;6.22;2.50;;;1.20;93.60;;;;;;4937839;29;20080;-80
2021/01/19 04:31:13;;;;;;;6.82;2.35;;;1.20;93.60;;;;;;4933408;29;20134;-80
2021/01/19 04:33:39;;;;;;;3.83;2.20;;;1.20;93.70;;;;;;4936105;29;20493;-81
2021/01/19 04:36:06;;;;;;;5.15;2.00;;;1.30;93.50;;;;;;4933289;29;20076;-81
2021/01/19 04:38:33;;;;;;;5.28;2.10;;;1.40;93.00;;;;;;4939225;29;20055;-80
2021/01/19 04:41:00;;;;;;;4.93;1.92;;;1.40;92.90;;;;;;4936088;29;20071;-81
2021/01/19 04:43:27;;;;;;;4.18;1.88;;;1.40;93.10;;;;;;4935014;29;20072;-81
2021/01/19 04:45:55;;;;;;;4.57;2.00;;;1.60;93.00;;;;;;4930602;29;20076;-81
2021/01/19 04:48:22;;;;;;;3.85;1.85;;;1.50;92.80;;;;;;4922149;29;20052;-80
2021/01/19 04:50:49;;;;;;;5.07;1.95;;;1.50;92.50;;;;;;4905593;29;20052;-80
2021/01/19 04:53:19;;;;;;;4.45;1.70;;;1.70;92.00;;;;;;4923101;29;20476;-81
2021/01/19 04:55:54;;;;;;;3.65;1.33;;;1.70;92.00;;;;;;4921648;29;20110;-81
2021/01/19 04:58:23;;;;;;;4.22;1.70;;;1.70;91.90;;;;;;4921628;29;20048;-81
2021/01/19 05:01:07;;;;;;;3.42;1.27;;;1.80;92.10;;;;;;4920734;29;20052;-80
2021/01/19 05:03:57;;;;;;;3.75;1.42;;;1.90;92.20;;;;;;4921955;29;20088;-81
2021/01/19 05:07:22;;;;;;;5.80;1.77;;;1.90;91.70;;;;;;4922162;29;20115;-81
2021/01/19 05:10:05;;;;;;;4.78;1.60;;;1.90;92.10;;;;;;4924703;29;20147;-80
2021/01/19 05:12:40;;;;;;;5.22;1.70;;;1.90;92.20;;;;;;4924615;29;20060;-80
2021/01/19 05:15:12;;;;;;;5.00;1.70;;;1.90;92.50;;;;;;4919409;29;20156;-80
2021/01/19 05:17:41;;;;;;;4.40;2.40;;;1.80;93.30;;;;;;4921524;29;20140;-80
2021/01/19 05:20:11;;;;;;;6.20;1.85;;;1.70;93.70;;;;;;4917955;29;20131;-80
2021/01/19 05:22:38;;;;;;;3.55;1.67;;;1.60;92.70;;;;;;4917669;29;20137;-80
2021/01/19 05:25:07;;;;;;;5.80;1.70;;;1.60;92.50;;;;;;4903526;29;20109;-79
2021/01/19 05:27:34;;;;;;;4.25;1.60;;;1.60;93.30;;;;;;4930919;29;20083;-80
2021/01/19 05:30:02;;;;;;;4.15;1.85;;;1.60;92.60;;;;;;4918089;29;20139;-80
2021/01/19 05:32:40;;;;;;;6.55;2.00;;;1.70;93.40;;;;;;4932834;29;20045;-80
2021/01/19 05:35:18;;;;;;;5.95;1.90;;;1.60;93.20;;;;;;4919584;29;20554;-80
2021/01/19 05:37:57;;;;;;;5.05;1.95;;;1.50;94.10;;;;;;4900978;29;20510;-80
2021/01/19 05:40:24;;;;;;;6.47;2.00;;;1.50;93.70;;;;;;4919642;29;20048;-80
2021/01/19 05:42:51;;;;;;;4.55;2.10;;;1.50;94.10;;;;;;4917168;29;20501;-80
2021/01/19 05:45:18;;;;;;;4.65;2.15;;;1.40;94.60;;;;;;4932175;29;20150;-80
2021/01/19 05:47:45;;;;;;;5.32;2.10;;;1.40;94.50;;;;;;4917944;29;20060;-81
2021/01/19 05:50:14;;;;;;;4.97;2.20;;;1.30;94.60;;;;;;4918026;29;20052;-80
2021/01/19 05:52:41;;;;;;;3.78;1.88;;;1.30;94.90;;;;;;4918121;29;20679;-80
2021/01/19 05:55:09;;;;;;;5.13;1.95;;;1.30;94.60;;;;;;4932440;29;20044;-81
2021/01/19 05:57:36;;;;;;;5.90;2.50;;;1.20;94.00;;;;;;4917322;29;20052;-80
2021/01/19 06:00:06;;;;;;;5.13;1.88;;;1.30;93.60;;;;;;4916915;29;20490;-81
2021/01/19 06:02:38;;;;;;;6.15;1.90;;;1.30;93.50;;;;;;4917491;29;20052;-80
2021/01/19 06:05:11;;;;;;;4.88;1.83;;;1.30;93.20;;;;;;4917246;29;20183;-80
2021/01/19 06:07:39;;;;;;;3.50;1.60;;;1.30;93.10;;;;;;4917339;29;20135;-81
2021/01/19 06:10:10;;;;;;;3.70;1.77;;;1.40;92.80;;;;;;4900965;29;20044;-80
2021/01/19 06:12:37;;;;;;;5.10;1.92;;;1.50;93.20;;;;;;4917671;29;20058;-81
2021/01/19 06:15:06;;;;;;;3.50;1.60;;;1.60;93.00;;;;;;4917115;29;20056;-81
2021/01/19 06:17:33;;;;;;;3.30;1.40;;;1.60;92.90;;;;;;4916957;29;20056;-81
2021/01/19 06:20:03;;;;;;;3.75;1.70;;;1.70;92.40;;;;;;4916743;29;20482;-81
2021/01/19 06:22:30;;;;;;;4.93;1.63;;;1.70;92.00;;;;;;4917290;29;20055;-80
2021/01/19 06:24:58;;;;;;;4.28;1.63;;;1.70;92.40;;;;;;4917401;29;20486;-80
2021/01/19 06:27:29;;;;;;;5.85;1.98;;;1.70;92.60;;;;;;4884432;29;20044;-80
2021/01/19 06:30:12;;;;;;;3.58;1.75;;;1.60;92.70;;;;;;4917447;29;20131;-81
2021/01/19 06:32:46;;;;;;;4.38;1.75;;;1.50;93.00;;;;;;4926596;29;20080;-82
2021/01/19 06:35:15;;;;;;;6.82;1.88;;;1.40;92.90;;;;;;4934004;29;20139;-80
2021/01/19 06:37:47;;;;;;;7.97;2.97;;;1.30;93.80;;;;;;4918741;29;20092;-81
2021/01/19 06:40:17;;;;;;;8.02;3.33;;;1.20;94.30;;;;;;4900324;29;20554;-80
2021/01/19 06:42:56;;;;;;;8.55;3.15;;;1.10;93.90;;;;;;4917296;29;20142;-81
2021/01/19 06:45:24;;;;;;;5.60;2.65;;;1.00;93.70;;;;;;4917709;29;20139;-81
2021/01/19 06:47:52;;;;;;;5.45;2.65;;;1.00;94.10;;;;;;4925659;29;20115;-80
2021/01/19 06:50:20;;;;;;;6.55;2.90;;;0.90;94.10;;;;;;4936169;29;20052;-81
2021/01/19 06:53:13;;;;;;;7.72;3.25;;;0.90;94.50;;;;;;4935561;29;20086;-80
2021/01/19 06:56:00;;;;;;;6.28;2.53;;;0.90;94.80;;;;;;4927117;29;20080;-81
2021/01/19 06:58:48;;;;;;;6.75;3.03;;;1.00;94.60;;;;;;4923728;29;20486;-81
2021/01/19 07:01:17;;;;;;;7.60;3.30;;;0.90;94.80;;;;;;4917917;29;20494;-81
2021/01/19 07:03:46;;;;;;;5.80;2.70;;;0.80;95.20;;;;;;4900989;29;20056;-81
2021/01/19 07:06:17;;;;;;;5.82;3.55;;;0.70;95.10;;;;;;4917766;29;20139;-81
2021/01/19 07:09:46;;;;;;;6.60;3.45;;;0.60;95.30;;;;;;4919790;29;20421;-81
2021/01/19 07:12:19;;;;;;;8.25;4.00;;;0.60;94.60;;;;;;4921904;29;20088;-81
2021/01/19 07:15:05;;;;;;;7.03;4.00;;;0.60;94.60;;;;;;4920604;29;20091;-80
2021/01/19 07:18:03;;;;;;;9.50;4.00;;;0.60;94.60;;;;;;4919356;29;20103;-81
2021/01/19 07:20:32;;;;;;;8.35;3.67;;;0.60;94.60;;;;;;4918136;29;20135;-81
2021/01/19 07:23:03;;;;;;;6.05;3.00;;;0.60;94.50;;;;;;4919064;29;20051;-81
2021/01/19 07:25:31;;;;;;;7.40;3.63;;;0.70;93.90;;;;;;4932921;29;20139;-80
2021/01/19 07:27:57;;;;;;;6.38;3.30;;;0.70;94.40;;;;;;4919002;29;20052;-80
2021/01/19 07:30:25;;;;;;;8.43;3.30;;;0.60;94.00;;;;;;4918233;29;20083;-80
2021/01/19 07:32:55;;;;;;;7.28;3.38;;;0.70;93.80;;;;;;4921907;29;20076;-80
2021/01/19 07:35:25;;;;;;;9.35;3.13;;;0.70;93.70;;;;;;4908449;29;20505;-80
2021/01/19 07:37:59;;;;;;;8.38;4.10;;;0.80;94.00;;;;;;4911110;29;20052;-81
2021/01/19 07:40:26;;;;;;;7.00;4.00;;;0.80;94.30;;;;;;4936887;29;20076;-80
2021/01/19 07:42:54;;;;;;;7.53;3.40;;;0.60;94.70;;;;;;4936683;29;20090;-81
2021/01/19 07:45:39;;;;;;;8.45;3.53;;;0.60;94.80;;;;;;4913919;29;20088;-81
2021/01/19 07:48:08;;;;;;;8.18;3.75;;;0.60;94.80;;;;;;4926033;29;20542;-80
2021/01/19 07:50:43;;;;;;;6.97;3.40;;;0.60;94.50;;;;;;4929908;29;20088;-81
2021/01/19 07:53:10;;;;;;;;;;;0.70;94.60;;;;;;4946128;29;20059;-81
2021/01/19 07:55:48;;;;;;;7.13;3.33;;;0.80;94.30;;;;;;4926702;29;19965;-80
2021/01/19 07:58:17;;;;;;;7.40;3.08;;;0.80;94.40;;;;;;4916506;29;20064;-80
2021/01/19 08:00:47;;;;;;;8.25;3.08;;;0.80;94.30;;;;;;4936799;29;20052;-79
2021/01/19 08:03:13;;;;;;;7.53;3.30;;;0.70;94.60;;;;;;4938724;29;20084;-80
2021/01/19 08:05:40;;;;;;;6.78;3.28;;;0.70;94.20;;;;;;4920857;29;20079;-81
2021/01/19 08:08:15;;;;;;;8.30;3.42;;;0.70;93.70;;;;;;4936110;29;20192;-80
2021/01/19 08:10:41;;;;;;;7.68;3.50;;;0.70;93.80;;;;;;4934650;29;20498;-80
2021/01/19 08:13:18;;;;;;;6.25;3.30;;;0.70;93.60;;;;;;4932048;29;20087;-80
2021/01/19 08:16:01;;;;;;;9.05;3.83;;;0.80;93.50;;;;;;4928353;29;20115;-80
2021/01/19 08:18:39;;;;;;;8.43;3.65;;;0.80;93.70;;;;;;4923270;29;20055;-80
2021/01/19 08:21:09;;;;;;;7.38;3.30;;;0.90;94.20;;;;;;4922320;29;20056;-80
2021/01/19 08:23:36;;;;;;;6.75;3.38;;;1.00;93.60;;;;;;4921465;29;20052;-81
2021/01/19 08:26:08;;;;;;;5.63;3.03;;;1.20;93.00;;;;;;4921398;29;20100;-80
2021/01/19 08:28:37;;;;;;;7.05;3.40;;;1.40;92.70;;;;;;4921085;29;20139;-81
2021/01/19 08:31:13;;;;;;;6.10;2.92;;;1.60;92.30;;;;;;4904241;29;20515;-81
2021/01/19 08:33:40;;;;;;;6.30;3.17;;;1.70;91.60;;;;;;4923060;29;20059;-81
2021/01/19 08:36:09;;;;;;;7.40;3.67;;;1.80;91.30;;;;;;4921024;29;20111;-81
2021/01/19 08:38:36;;;;;;;6.70;3.20;;;1.90;91.20;;;;;;4921480;29;20124;-81
2021/01/19 08:41:02;;;;;;;6.65;3.60;;;2.00;91.10;;;;;;4921534;29;20115;-81
2021/01/19 08:43:29;;;;;;;8.13;4.28;;;2.10;90.70;;;;;;4922122;29;20560;-81
2021/01/19 08:46:00;;;;;;;7.82;3.80;;;2.00;90.50;;;;;;4936924;29;20052;-81
2021/01/19 08:48:27;;;;;;;7.55;3.70;;;2.00;90.90;;;;;;4937560;29;20056;-81
2021/01/19 08:50:54;;;;;;;7.78;3.80;;;2.00;91.00;;;;;;4927778;29;20076;-81
2021/01/19 08:53:20;;;;;;;5.90;3.28;;;2.00;90.80;;;;;;4921006;29;20089;-81
2021/01/19 08:55:47;;;;;;;7.03;3.60;;;2.10;90.60;;;;;;4921137;29;20135;-81
2021/01/19 08:58:19;;;;;;;7.68;3.40;;;2.10;90.80;;;;;;4919467;29;20052;-80
2021/01/19 09:00:46;;;;;;;9.45;4.00;;;2.20;90.20;;;;;;4920079;29;20140;-80
2021/01/19 09:03:15;;;;;;;7.95;3.40;;;2.30;90.10;;;;;;4919308;29;20491;-80
2021/01/19 09:05:42;;;;;;;6.35;3.22;;;2.40;90.10;;;;;;4920957;29;20502;-80
2021/01/19 09:08:14;;;;;;;7.57;3.40;;;2.40;89.20;;;;;;4919320;29;20112;-80
2021/01/19 09:10:42;;;;;;;6.53;3.40;;;2.30;88.70;;;;;;4920306;29;20385;-81
2021/01/19 09:13:10;;;;;;;7.30;3.50;;;2.20;89.80;;;;;;4920855;29;20419;-80
2021/01/19 09:15:39;;;;;;;5.78;3.45;;;2.10;90.30;;;;;;4894025;29;20067;-81
2021/01/19 09:18:10;;;;;;;6.55;3.58;;;2.00;90.10;;;;;;4936122;29;20107;-80
2021/01/19 09:20:39;;;;;;;8.40;3.70;;;2.00;90.70;;;;;;4929619;29;20052;-81
2021/01/19 09:23:15;;;;;;;8.27;4.30;;;2.10;90.60;;;;;;4924167;29;20566;-80
2021/01/19 09:25:42;;;;;;;9.88;4.60;;;2.00;90.50;;;;;;4926535;29;20111;-81
2021/01/19 09:28:11;;;;;;;7.43;4.10;;;2.00;90.60;;;;;;4927941;29;20084;-81
2021/01/19 09:30:38;;;;;;;7.38;4.18;;;2.00;90.30;;;;;;4926151;29;20059;-80
2021/01/19 09:33:07;;;;;;;9.45;4.05;;;2.20;90.80;;;;;;4911908;29;20048;-81
2021/01/19 09:35:37;;;;;;;8.52;3.88;;;2.20;90.40;;;;;;4930058;29;20086;-81
2021/01/19 09:38:11;;;;;;;7.38;3.67;;;2.00;90.40;;;;;;4934298;29;20076;-79
2021/01/19 09:40:38;;;;;;;8.70;4.07;;;1.80;91.00;;;;;;4928013;29;20406;-81
2021/01/19 09:43:07;;;;;;;10.45;4.60;;;1.80;91.10;;;;;;4910390;29;20131;-80
2021/01/19 09:45:35;;;;;;;9.63;4.65;;;1.80;91.20;;;;;;4925293;29;20140;-81
2021/01/19 09:48:03;;;;;;;7.28;4.28;;;1.90;91.30;;;;;;4925829;29;20139;-81
2021/01/19 09:50:30;;;;;;;9.88;4.38;;;2.10;91.30;;;;;;4925394;29;20084;-81
2021/01/19 09:52:57;;;;;;;8.60;4.47;;;2.00;90.80;;;;;;4923184;29;20138;-81
2021/01/19 09:55:30;;;;;;;9.35;4.50;;;2.00;90.80;;;;;;4922564;29;20087;-80
2021/01/19 09:57:58;;;;;;;8.73;4.40;;;2.00;90.90;;;;;;4927777;29;20080;-81
2021/01/19 10:00:28;;;;;;;11.77;4.70;;;2.00;90.90;;;;;;4933739;29;20086;-81
2021/01/19 10:02:55;;;;;;;8.70;5.53;;;2.20;90.80;;;;;;4933646;29;20087;-81
2021/01/19 10:05:23;;;;;;;9.82;5.15;;;2.30;90.10;;;;;;4966156;29;20048;-81
2021/01/19 10:07:50;;;;;;;8.68;4.38;;;2.40;89.20;;;;;;4936254;29;20120;-81
2021/01/19 10:10:19;;;;;;;11.05;4.50;;;2.60;87.10;;;;;;4926194;29;20075;-81
2021/01/19 10:12:47;;;;;;;8.13;4.05;;;2.60;86.80;;;;;;4927202;29;20066;-80
2021/01/19 10:15:16;;;;;;;8.55;4.07;;;2.70;85.90;;;;;;4931716;29;20071;-81
2021/01/19 10:17:43;;;;;;;6.95;4.05;;;2.60;85.80;;;;;;4917597;29;20076;-80
2021/01/19 10:20:13;;;;;;;9.50;4.35;;;2.70;85.80;;;;;;4929621;29;20514;-80
2021/01/19 10:22:42;;;;;;;8.68;4.22;;;2.80;85.10;;;;;;4924748;29;20053;-81
2021/01/19 10:25:12;;;;;;;7.43;4.13;;;2.90;85.70;;;;;;4922758;29;20501;-81
2021/01/19 10:27:45;;;;;;;7.68;3.92;;;3.00;85.80;;;;;;4924732;29;20072;-81
2021/01/19 10:30:13;;;;;;;9.50;4.82;;;3.10;85.60;;;;;;4924691;29;20112;-81
2021/01/19 10:32:49;;;;;;;8.82;4.65;;;3.10;85.50;;;;;;4927940;29;20098;-80
2021/01/19 10:35:27;;;;;;;9.40;4.70;;;3.10;85.40;;;;;;4927187;29;20184;-80
2021/01/19 10:37:56;;;;;;;9.48;4.45;;;3.20;85.30;;;;;;4926919;29;20341;-81
2021/01/19 10:40:23;;;;;;;10.60;5.13;;;3.00;85.80;;;;;;4928135;29;20154;-81
2021/01/19 10:42:51;;;;;;;12.50;5.13;;;3.00;86.20;;;;;;4921948;29;20086;-80
2021/01/19 10:45:28;;;;;;;12.15;5.38;;;3.00;86.60;;;;;;4902898;29;20054;-80
2021/01/19 10:47:57;;;;;;;10.02;5.20;;;3.10;86.90;;;;;;4918091;29;20135;-80
2021/01/19 10:50:29;;;;;;;10.88;4.82;;;3.20;86.40;;;;;;4920469;29;20059;-80
2021/01/19 10:52:58;;;;;;;11.60;4.97;;;3.20;86.10;;;;;;4922182;29;20060;-81
2021/01/19 10:55:26;;;;;;;9.20;4.97;;;3.30;86.00;;;;;;4921319;29;20075;-81
2021/01/19 10:57:56;;;;;;;9.15;4.70;;;3.40;85.80;;;;;;4920198;29;20138;-81
2021/01/19 11:00:24;;;;;;;11.15;5.10;;;3.40;85.60;;;;;;4918986;29;20147;-81
2021/01/19 11:02:51;;;;;;;9.30;4.82;;;3.50;85.70;;;;;;4918630;29;20048;-80
2021/01/19 11:05:20;;;;;;;9.77;5.30;;;3.60;85.60;;;;;;4919099;29;20119;-81
2021/01/19 11:07:51;;;;;;;8.73;4.70;;;3.70;85.00;;;;;;4922061;29;20060;-81
2021/01/19 11:10:22;;;;;;;9.18;5.47;;;3.70;84.60;;;;;;4924373;29;20083;-81
2021/01/19 11:12:51;;;;;;;11.45;4.80;;;3.70;84.50;;;;;;4925368;29;20430;-80
2021/01/19 11:15:18;;;;;;;8.25;4.53;;;3.80;84.60;;;;;;4926230;29;20116;-80
2021/01/19 11:17:48;;;;;;;8.57;4.78;;;3.70;85.20;;;;;;4943784;29;20056;-81
2021/01/19 11:20:15;;;;;;;11.90;5.13;;;3.80;85.10;;;;;;4935269;29;20063;-81
2021/01/19 11:22:44;;;;;;;11.63;5.85;;;3.80;84.90;;;;;;4926680;29;20112;-81
2021/01/19 11:25:12;;;;;;;8.95;5.32;;;3.70;86.30;;;;;;4923300;29;20122;-81
2021/01/19 11:27:39;;;;;;;10.43;5.32;;;3.70;86.30;;;;;;4904912;29;20044;-80
2021/01/19 11:30:08;;;;;;;9.63;5.35;;;3.50;86.90;;;;;;4930953;29;20078;-81
2021/01/19 11:32:35;;;;;;;11.38;5.93;;;3.50;88.10;;;;;;4930890;29;20147;-81
2021/01/19 11:35:02;;;;;;;13.50;5.80;;;3.50;88.00;;;;;;4929127;29;20138;-81
2021/01/19 11:37:30;;;;;;;13.40;5.75;;;3.40;88.70;;;;;;4913579;29;20093;-81
2021/01/19 11:39:57;;;;;;;16.08;6.22;;;3.40;89.20;;;;;;4925444;29;20498;-81
2021/01/19 11:42:23;;;;;;;12.45;5.80;;;3.40;89.10;;;;;;4923919;29;20055;-80
2021/01/19 11:44:50;;;;;;;11.27;5.90;;;3.40;88.90;;;;;;4939834;29;20110;-81
2021/01/19 11:47:17;;;;;;;11.63;5.97;;;3.60;88.90;;;;;;4923750;29;20138;-81
2021/01/19 11:49:44;;;;;;;10.63;5.53;;;3.70;88.30;;;;;;4925780;29;20052;-81
2021/01/19 11:52:11;;;;;;;11.27;6.28;;;3.70;88.00;;;;;;4926015;29;20139;-81
2021/01/19 11:54:37;;;;;;;9.32;4.93;;;3.90;86.60;;;;;;4917162;29;20081;-81
2021/01/19 11:57:05;;;;;;;8.60;4.60;;;4.00;84.70;;;;;;4936376;29;20055;-80
2021/01/19 11:59:31;;;;;;;10.57;4.68;;;4.00;84.40;;;;;;4946197;29;20140;-81
2021/01/19 12:02:00;;;;;;;9.43;4.70;;;4.00;83.90;;;;;;4932970;29;20095;-80
2021/01/19 12:04:26;;;;;;;11.10;5.07;;;4.00;83.90;;;;;;4933588;29;20071;-81
2021/01/19 12:06:55;;;;;;;9.15;5.03;;;4.10;83.70;;;;;;4931522;29;20052;-81
2021/01/19 12:09:25;;;;;;;9.40;4.70;;;4.10;83.10;;;;;;4930165;29;20063;-80
2021/01/19 12:11:54;;;;;;;9.70;4.55;;;4.10;83.10;;;;;;4929633;29;20048;-81
2021/01/19 12:14:22;;;;;;;9.48;4.18;;;4.10;82.50;;;;;;4927234;29;20067;-80
2021/01/19 12:16:53;;;;;;;11.32;4.25;;;4.20;82.40;;;;;;4925540;29;20052;-80
2021/01/19 12:19:21;;;;;;;8.43;3.67;;;4.20;81.70;;;;;;4910333;29;20453;-79
2021/01/19 12:21:49;;;;;;;8.27;3.50;;;4.20;81.70;;;;;;4936979;29;20115;-80
2021/01/19 12:24:17;;;;;;;7.13;3.40;;;4.10;81.30;;;;;;4920960;29;20062;-79
2021/01/19 12:26:45;;;;;;;9.00;3.55;;;4.10;81.20;;;;;;4921112;29;20044;-80
2021/01/19 12:29:12;;;;;;;8.48;3.10;;;4.30;80.30;;;;;;4925409;29;20505;-81
2021/01/19 12:31:39;;;;;;;6.40;2.75;;;4.20;80.60;;;;;;4923024;29;20120;-81
2021/01/19 12:34:06;;;;;;;8.65;3.22;;;4.30;80.50;;;;;;4935421;29;20056;-79
2021/01/19 12:36:33;;;;;;;5.72;2.47;;;4.30;79.60;;;;;;4922444;29;20245;-81
2021/01/19 12:39:01;;;;;;;7.60;2.90;;;4.40;79.30;;;;;;4921659;29;20115;-81
2021/01/19 12:41:28;;;;;;;6.40;2.97;;;4.50;79.00;;;;;;4905504;29;20056;-82
2021/01/19 12:43:56;;;;;;;7.60;2.80;;;4.50;78.80;;;;;;4942770;29;20132;-81
2021/01/19 12:46:23;;;;;;;9.32;2.80;;;4.50;78.80;;;;;;4919330;29;20135;-82
2021/01/19 12:48:50;;;;;;;6.47;2.60;;;4.60;78.80;;;;;;4918841;29;20068;-80
2021/01/19 12:51:18;;;;;;;6.32;2.90;;;4.60;79.20;;;;;;4945192;29;20160;-80
2021/01/19 12:53:45;;;;;;;6.45;2.70;;;4.40;79.10;;;;;;4914885;29;20095;-81
2021/01/19 12:56:13;;;;;;;5.93;2.50;;;4.40;79.40;;;;;;4926573;29;20565;-81
2021/01/19 12:58:41;;;;;;;5.53;2.30;;;4.50;78.80;;;;;;4925887;29;20622;-81
2021/01/19 13:01:08;;;;;;;5.28;2.17;;;4.50;78.20;;;;;;4938129;29;20116;-81
2021/01/19 13:03:37;;;;;;;6.13;2.10;;;4.60;78.30;;;;;;4922105;29;20143;-82
2021/01/19 13:06:07;;;;;;;6.38;2.15;;;4.70;77.10;;;;;;4923563;29;20134;-81
2021/01/19 13:08:34;;;;;;;4.60;1.70;;;4.70;77.10;;;;;;4921855;29;20058;-79
2021/01/19 13:11:01;;;;;;;5.38;1.90;;;4.70;77.00;;;;;;4921502;29;20059;-82